sensor_id;sensor_type;location;lat;lon;timestamp;P1;durP1;ratioP1;P2;durP2;ratioP2
10523;SDS011;5310;48.638;9.060;2023-07-30T00:02:21;2.57;;;1.50;;
10523;SDS011;5310;48.638;9.060;2023-07-30T00:04:47;2.57;;;1.50;;
10523;SDS011;5310;48.638;9.060;2023-07-30T00:07:13;2.70;;;1.50;;
10523;SDS011;5310;48.638;9.060;2023-07-30T00:09:39;2.37;;;1.40;;
10523;SDS011;5310;48.638;9.060;2023-07-30T00:12:05;3.40;;;1.90;;
10523;SDS011;5310;48.638;9.060;2023-07-30T00:14:32;2.00;;;1.40;;
10523;SDS011;5310;48.638;9.060;2023-07-30T00:16:58;2.73;;;1.60;;
10523;SDS011;5310;48.638;9.060;2023-07-30T00:19:24;2.37;;;1.50;;
10523;SDS011;5310;48.638;9.060;2023-07-30T00:21:50;2.93;;;1.73;;
10523;SDS011;5310;48.638;9.060;2023-07-30T00:24:15;2.30;;;1.63;;
10523;SDS011;5310;48.638;9.060;2023-07-30T00:26:41;2.57;;;1.77;;
10523;SDS011;5310;48.638;9.060;2023-07-30T00:29:07;2.47;;;1.73;;
10523;SDS011;5310;48.638;9.060;2023-07-30T00:31:33;2.67;;;1.80;;
10523;SDS011;5310;48.638;9.060;2023-07-30T00:33:59;2.17;;;1.40;;
10523;SDS011;5310;48.638;9.060;2023-07-30T00:36:25;2.97;;;1.80;;
10523;SDS011;5310;48.638;9.060;2023-07-30T00:38:51;3.23;;;1.87;;
10523;SDS011;5310;48.638;9.060;2023-07-30T00:41:17;2.57;;;1.67;;
10523;SDS011;5310;48.638;9.060;2023-07-30T00:43:44;2.00;;;1.40;;
10523;SDS011;5310;48.638;9.060;2023-07-30T00:46:10;2.70;;;1.80;;
10523;SDS011;5310;48.638;9.060;2023-07-30T00:48:36;2.60;;;1.70;;
10523;SDS011;5310;48.638;9.060;2023-07-30T00:51:02;2.33;;;1.63;;
10523;SDS011;5310;48.638;9.060;2023-07-30T00:53:28;2.80;;;1.83;;
10523;SDS011;5310;48.638;9.060;2023-07-30T00:55:54;3.17;;;1.93;;
10523;SDS011;5310;48.638;9.060;2023-07-30T00:58:21;2.73;;;1.73;;
10523;SDS011;5310;48.638;9.060;2023-07-30T01:00:47;3.70;;;2.13;;
10523;SDS011;5310;48.638;9.060;2023-07-30T01:03:13;2.67;;;1.73;;
10523;SDS011;5310;48.638;9.060;2023-07-30T01:05:39;2.80;;;1.87;;
10523;SDS011;5310;48.638;9.060;2023-07-30T01:08:05;2.83;;;1.87;;
10523;SDS011;5310;48.638;9.060;2023-07-30T01:10:31;3.10;;;1.70;;
10523;SDS011;5310;48.638;9.060;2023-07-30T01:13:01;2.63;;;1.77;;
10523;SDS011;5310;48.638;9.060;2023-07-30T01:15:28;2.90;;;1.90;;
10523;SDS011;5310;48.638;9.060;2023-07-30T01:17:55;3.23;;;1.97;;
10523;SDS011;5310;48.638;9.060;2023-07-30T01:20:21;2.80;;;1.60;;
10523;SDS011;5310;48.638;9.060;2023-07-30T01:22:47;2.50;;;1.70;;
10523;SDS011;5310;48.638;9.060;2023-07-30T01:25:15;2.57;;;1.63;;
10523;SDS011;5310;48.638;9.060;2023-07-30T01:27:44;2.30;;;1.57;;
10523;SDS011;5310;48.638;9.060;2023-07-30T01:30:26;3.53;;;1.93;;
10523;SDS011;5310;48.638;9.060;2023-07-30T01:32:53;3.03;;;1.70;;
10523;SDS011;5310;48.638;9.060;2023-07-30T01:35:20;3.00;;;1.77;;
10523;SDS011;5310;48.638;9.060;2023-07-30T01:37:47;3.70;;;1.97;;
10523;SDS011;5310;48.638;9.060;2023-07-30T01:40:14;2.83;;;1.60;;
10523;SDS011;5310;48.638;9.060;2023-07-30T01:42:39;3.10;;;1.73;;
10523;SDS011;5310;48.638;9.060;2023-07-30T01:45:06;3.30;;;1.90;;
10523;SDS011;5310;48.638;9.060;2023-07-30T01:47:31;2.97;;;1.80;;
10523;SDS011;5310;48.638;9.060;2023-07-30T01:49:57;2.93;;;1.77;;
10523;SDS011;5310;48.638;9.060;2023-07-30T01:52:23;3.73;;;1.93;;
10523;SDS011;5310;48.638;9.060;2023-07-30T01:54:49;3.67;;;2.00;;
10523;SDS011;5310;48.638;9.060;2023-07-30T01:57:15;3.13;;;1.70;;
10523;SDS011;5310;48.638;9.060;2023-07-30T01:59:41;3.63;;;1.90;;
10523;SDS011;5310;48.638;9.060;2023-07-30T02:02:07;2.30;;;1.47;;
10523;SDS011;5310;48.638;9.060;2023-07-30T02:04:33;3.37;;;1.80;;
10523;SDS011;5310;48.638;9.060;2023-07-30T02:06:59;3.23;;;1.83;;
10523;SDS011;5310;48.638;9.060;2023-07-30T02:09:25;2.70;;;1.70;;
10523;SDS011;5310;48.638;9.060;2023-07-30T02:11:51;2.60;;;1.57;;
10523;SDS011;5310;48.638;9.060;2023-07-30T02:14:17;3.03;;;1.80;;
10523;SDS011;5310;48.638;9.060;2023-07-30T02:16:43;3.43;;;1.87;;
10523;SDS011;5310;48.638;9.060;2023-07-30T02:19:09;3.13;;;1.73;;
10523;SDS011;5310;48.638;9.060;2023-07-30T02:21:35;4.50;;;2.10;;
10523;SDS011;5310;48.638;9.060;2023-07-30T02:24:04;3.70;;;1.97;;
10523;SDS011;5310;48.638;9.060;2023-07-30T02:26:34;4.50;;;2.10;;
10523;SDS011;5310;48.638;9.060;2023-07-30T02:29:00;4.70;;;1.97;;
10523;SDS011;5310;48.638;9.060;2023-07-30T02:31:26;3.17;;;1.80;;
10523;SDS011;5310;48.638;9.060;2023-07-30T02:33:52;3.07;;;1.80;;
10523;SDS011;5310;48.638;9.060;2023-07-30T02:36:18;2.67;;;1.60;;
10523;SDS011;5310;48.638;9.060;2023-07-30T02:38:44;4.23;;;2.23;;
10523;SDS011;5310;48.638;9.060;2023-07-30T02:41:10;3.73;;;1.87;;
10523;SDS011;5310;48.638;9.060;2023-07-30T02:43:36;4.43;;;2.23;;
10523;SDS011;5310;48.638;9.060;2023-07-30T02:46:02;3.43;;;1.83;;
10523;SDS011;5310;48.638;9.060;2023-07-30T02:48:28;3.53;;;1.90;;
10523;SDS011;5310;48.638;9.060;2023-07-30T02:50:54;3.03;;;1.77;;
10523;SDS011;5310;48.638;9.060;2023-07-30T02:53:20;3.37;;;1.80;;
10523;SDS011;5310;48.638;9.060;2023-07-30T02:55:46;3.43;;;1.80;;
10523;SDS011;5310;48.638;9.060;2023-07-30T02:58:12;3.57;;;2.03;;
10523;SDS011;5310;48.638;9.060;2023-07-30T03:00:38;3.20;;;1.87;;
10523;SDS011;5310;48.638;9.060;2023-07-30T03:03:04;2.93;;;1.77;;
10523;SDS011;5310;48.638;9.060;2023-07-30T03:05:29;3.27;;;1.90;;
10523;SDS011;5310;48.638;9.060;2023-07-30T03:07:55;3.00;;;1.77;;
10523;SDS011;5310;48.638;9.060;2023-07-30T03:10:21;3.57;;;1.87;;
10523;SDS011;5310;48.638;9.060;2023-07-30T03:12:47;2.97;;;1.80;;
10523;SDS011;5310;48.638;9.060;2023-07-30T03:15:13;2.47;;;1.57;;
10523;SDS011;5310;48.638;9.060;2023-07-30T03:17:39;1.20;;;1.03;;
10523;SDS011;5310;48.638;9.060;2023-07-30T03:20:05;2.10;;;1.40;;
10523;SDS011;5310;48.638;9.060;2023-07-30T03:22:31;1.93;;;1.40;;
10523;SDS011;5310;48.638;9.060;2023-07-30T03:24:57;3.00;;;1.70;;
10523;SDS011;5310;48.638;9.060;2023-07-30T03:27:23;1.30;;;1.17;;
10523;SDS011;5310;48.638;9.060;2023-07-30T03:29:49;1.67;;;1.30;;
10523;SDS011;5310;48.638;9.060;2023-07-30T03:32:15;1.27;;;1.13;;
10523;SDS011;5310;48.638;9.060;2023-07-30T03:34:41;1.50;;;1.10;;
10523;SDS011;5310;48.638;9.060;2023-07-30T03:37:07;1.00;;;0.97;;
10523;SDS011;5310;48.638;9.060;2023-07-30T03:39:33;2.47;;;1.50;;
10523;SDS011;5310;48.638;9.060;2023-07-30T03:41:59;2.00;;;1.40;;
10523;SDS011;5310;48.638;9.060;2023-07-30T03:44:26;1.53;;;1.23;;
10523;SDS011;5310;48.638;9.060;2023-07-30T03:46:51;1.23;;;1.10;;
10523;SDS011;5310;48.638;9.060;2023-07-30T03:49:17;1.13;;;1.00;;
10523;SDS011;5310;48.638;9.060;2023-07-30T03:51:43;1.20;;;1.03;;
10523;SDS011;5310;48.638;9.060;2023-07-30T03:54:09;1.13;;;1.00;;
10523;SDS011;5310;48.638;9.060;2023-07-30T03:56:35;0.90;;;0.90;;
10523;SDS011;5310;48.638;9.060;2023-07-30T03:59:01;1.30;;;1.10;;
10523;SDS011;5310;48.638;9.060;2023-07-30T04:01:27;1.20;;;1.10;;
10523;SDS011;5310;48.638;9.060;2023-07-30T04:03:54;1.50;;;1.30;;
10523;SDS011;5310;48.638;9.060;2023-07-30T04:06:20;2.13;;;1.43;;
10523;SDS011;5310;48.638;9.060;2023-07-30T04:08:46;1.20;;;1.10;;
10523;SDS011;5310;48.638;9.060;2023-07-30T04:11:11;1.87;;;1.33;;
10523;SDS011;5310;48.638;9.060;2023-07-30T04:13:37;2.37;;;1.50;;
10523;SDS011;5310;48.638;9.060;2023-07-30T04:16:03;1.63;;;1.30;;
10523;SDS011;5310;48.638;9.060;2023-07-30T04:18:29;2.20;;;1.50;;
10523;SDS011;5310;48.638;9.060;2023-07-30T04:20:55;2.13;;;1.30;;
10523;SDS011;5310;48.638;9.060;2023-07-30T04:23:21;2.97;;;1.70;;
10523;SDS011;5310;48.638;9.060;2023-07-30T04:25:50;2.50;;;1.60;;
10523;SDS011;5310;48.638;9.060;2023-07-30T04:28:16;2.97;;;1.83;;
10523;SDS011;5310;48.638;9.060;2023-07-30T04:30:43;1.93;;;1.33;;
10523;SDS011;5310;48.638;9.060;2023-07-30T04:33:09;1.13;;;1.03;;
10523;SDS011;5310;48.638;9.060;2023-07-30T04:35:35;2.33;;;1.60;;
10523;SDS011;5310;48.638;9.060;2023-07-30T04:38:01;2.10;;;1.50;;
10523;SDS011;5310;48.638;9.060;2023-07-30T04:40:27;2.93;;;1.63;;
10523;SDS011;5310;48.638;9.060;2023-07-30T04:42:53;2.67;;;1.50;;
10523;SDS011;5310;48.638;9.060;2023-07-30T04:45:19;2.40;;;1.60;;
10523;SDS011;5310;48.638;9.060;2023-07-30T04:47:45;2.70;;;1.60;;
10523;SDS011;5310;48.638;9.060;2023-07-30T04:50:11;2.00;;;1.43;;
10523;SDS011;5310;48.638;9.060;2023-07-30T04:52:38;2.07;;;1.40;;
10523;SDS011;5310;48.638;9.060;2023-07-30T04:55:04;2.30;;;1.50;;
10523;SDS011;5310;48.638;9.060;2023-07-30T04:57:30;2.13;;;1.40;;
10523;SDS011;5310;48.638;9.060;2023-07-30T04:59:56;2.50;;;1.50;;
10523;SDS011;5310;48.638;9.060;2023-07-30T05:02:24;1.53;;;1.17;;
10523;SDS011;5310;48.638;9.060;2023-07-30T05:04:50;2.03;;;1.40;;
10523;SDS011;5310;48.638;9.060;2023-07-30T05:07:16;2.00;;;1.30;;
10523;SDS011;5310;48.638;9.060;2023-07-30T05:09:41;2.00;;;1.40;;
10523;SDS011;5310;48.638;9.060;2023-07-30T05:12:07;2.33;;;1.60;;
10523;SDS011;5310;48.638;9.060;2023-07-30T05:14:33;2.47;;;1.47;;
10523;SDS011;5310;48.638;9.060;2023-07-30T05:16:59;1.97;;;1.30;;
10523;SDS011;5310;48.638;9.060;2023-07-30T05:19:25;2.10;;;1.40;;
10523;SDS011;5310;48.638;9.060;2023-07-30T05:21:51;1.67;;;1.27;;
10523;SDS011;5310;48.638;9.060;2023-07-30T05:24:17;1.63;;;1.17;;
10523;SDS011;5310;48.638;9.060;2023-07-30T05:26:43;2.23;;;1.40;;
10523;SDS011;5310;48.638;9.060;2023-07-30T05:29:09;2.00;;;1.40;;
10523;SDS011;5310;48.638;9.060;2023-07-30T05:31:35;1.83;;;1.27;;
10523;SDS011;5310;48.638;9.060;2023-07-30T05:34:01;2.67;;;1.50;;
10523;SDS011;5310;48.638;9.060;2023-07-30T05:36:27;2.27;;;1.40;;
10523;SDS011;5310;48.638;9.060;2023-07-30T05:38:53;2.13;;;1.30;;
10523;SDS011;5310;48.638;9.060;2023-07-30T05:41:19;2.70;;;1.60;;
10523;SDS011;5310;48.638;9.060;2023-07-30T05:43:46;1.83;;;1.30;;
10523;SDS011;5310;48.638;9.060;2023-07-30T05:46:12;1.43;;;1.10;;
10523;SDS011;5310;48.638;9.060;2023-07-30T05:48:38;1.30;;;1.03;;
10523;SDS011;5310;48.638;9.060;2023-07-30T05:51:04;1.00;;;0.90;;
10523;SDS011;5310;48.638;9.060;2023-07-30T05:53:30;1.07;;;0.97;;
10523;SDS011;5310;48.638;9.060;2023-07-30T05:55:56;1.20;;;1.10;;
10523;SDS011;5310;48.638;9.060;2023-07-30T05:58:22;1.40;;;1.10;;
10523;SDS011;5310;48.638;9.060;2023-07-30T06:00:48;1.40;;;1.10;;
10523;SDS011;5310;48.638;9.060;2023-07-30T06:03:13;1.10;;;0.90;;
10523;SDS011;5310;48.638;9.060;2023-07-30T06:05:40;1.37;;;1.17;;
10523;SDS011;5310;48.638;9.060;2023-07-30T06:08:06;1.00;;;0.90;;
10523;SDS011;5310;48.638;9.060;2023-07-30T06:10:34;2.43;;;1.40;;
10523;SDS011;5310;48.638;9.060;2023-07-30T06:13:01;1.20;;;1.00;;
10523;SDS011;5310;48.638;9.060;2023-07-30T06:15:26;1.90;;;1.30;;
10523;SDS011;5310;48.638;9.060;2023-07-30T06:17:52;1.67;;;1.23;;
10523;SDS011;5310;48.638;9.060;2023-07-30T06:20:18;2.40;;;1.40;;
10523;SDS011;5310;48.638;9.060;2023-07-30T06:22:44;2.60;;;1.50;;
10523;SDS011;5310;48.638;9.060;2023-07-30T06:25:10;2.00;;;1.30;;
10523;SDS011;5310;48.638;9.060;2023-07-30T06:27:36;1.80;;;1.23;;
10523;SDS011;5310;48.638;9.060;2023-07-30T06:30:02;2.60;;;1.50;;
10523;SDS011;5310;48.638;9.060;2023-07-30T06:32:28;2.20;;;1.40;;
10523;SDS011;5310;48.638;9.060;2023-07-30T06:34:54;2.27;;;1.40;;
10523;SDS011;5310;48.638;9.060;2023-07-30T06:37:20;2.63;;;1.50;;
10523;SDS011;5310;48.638;9.060;2023-07-30T06:39:46;2.10;;;1.40;;
10523;SDS011;5310;48.638;9.060;2023-07-30T06:42:12;2.60;;;1.50;;
10523;SDS011;5310;48.638;9.060;2023-07-30T06:44:38;2.80;;;1.60;;
10523;SDS011;5310;48.638;9.060;2023-07-30T06:47:04;2.47;;;1.57;;
10523;SDS011;5310;48.638;9.060;2023-07-30T06:49:30;2.40;;;1.40;;
10523;SDS011;5310;48.638;9.060;2023-07-30T06:51:59;2.13;;;1.30;;
10523;SDS011;5310;48.638;9.060;2023-07-30T06:54:24;2.27;;;1.37;;
10523;SDS011;5310;48.638;9.060;2023-07-30T06:56:50;3.40;;;1.70;;
10523;SDS011;5310;48.638;9.060;2023-07-30T06:59:16;3.07;;;1.77;;
10523;SDS011;5310;48.638;9.060;2023-07-30T07:01:42;2.17;;;1.37;;
10523;SDS011;5310;48.638;9.060;2023-07-30T07:04:08;2.37;;;1.40;;
10523;SDS011;5310;48.638;9.060;2023-07-30T07:06:34;1.70;;;1.13;;
10523;SDS011;5310;48.638;9.060;2023-07-30T07:09:00;2.63;;;1.57;;
10523;SDS011;5310;48.638;9.060;2023-07-30T07:11:26;1.97;;;1.23;;
10523;SDS011;5310;48.638;9.060;2023-07-30T07:13:52;2.00;;;1.30;;
10523;SDS011;5310;48.638;9.060;2023-07-30T07:16:18;1.90;;;1.23;;
10523;SDS011;5310;48.638;9.060;2023-07-30T07:18:44;4.03;;;2.00;;
10523;SDS011;5310;48.638;9.060;2023-07-30T07:21:10;1.20;;;0.93;;
10523;SDS011;5310;48.638;9.060;2023-07-30T07:23:36;1.77;;;1.17;;
10523;SDS011;5310;48.638;9.060;2023-07-30T07:26:02;3.03;;;1.63;;
10523;SDS011;5310;48.638;9.060;2023-07-30T07:28:28;3.90;;;1.67;;
10523;SDS011;5310;48.638;9.060;2023-07-30T07:30:54;2.80;;;1.43;;
10523;SDS011;5310;48.638;9.060;2023-07-30T07:33:20;3.63;;;1.73;;
10523;SDS011;5310;48.638;9.060;2023-07-30T07:35:46;2.93;;;1.53;;
10523;SDS011;5310;48.638;9.060;2023-07-30T07:38:12;2.37;;;1.37;;
10523;SDS011;5310;48.638;9.060;2023-07-30T07:40:38;3.20;;;1.53;;
10523;SDS011;5310;48.638;9.060;2023-07-30T07:43:05;2.90;;;1.60;;
10523;SDS011;5310;48.638;9.060;2023-07-30T07:45:31;3.57;;;1.70;;
10523;SDS011;5310;48.638;9.060;2023-07-30T07:47:57;2.53;;;1.50;;
10523;SDS011;5310;48.638;9.060;2023-07-30T07:50:23;2.87;;;1.53;;
10523;SDS011;5310;48.638;9.060;2023-07-30T07:52:49;4.07;;;1.87;;
10523;SDS011;5310;48.638;9.060;2023-07-30T07:55:15;3.10;;;1.50;;
10523;SDS011;5310;48.638;9.060;2023-07-30T07:57:41;3.17;;;1.67;;
10523;SDS011;5310;48.638;9.060;2023-07-30T08:00:07;3.07;;;1.70;;
10523;SDS011;5310;48.638;9.060;2023-07-30T08:02:33;3.87;;;1.83;;
10523;SDS011;5310;48.638;9.060;2023-07-30T08:04:59;3.87;;;1.67;;
10523;SDS011;5310;48.638;9.060;2023-07-30T08:07:25;3.53;;;1.70;;
10523;SDS011;5310;48.638;9.060;2023-07-30T08:09:51;2.67;;;1.57;;
10523;SDS011;5310;48.638;9.060;2023-07-30T08:12:18;2.93;;;1.40;;
10523;SDS011;5310;48.638;9.060;2023-07-30T08:14:44;3.37;;;1.63;;
10523;SDS011;5310;48.638;9.060;2023-07-30T08:17:10;4.43;;;1.80;;
10523;SDS011;5310;48.638;9.060;2023-07-30T08:19:36;3.33;;;1.70;;
10523;SDS011;5310;48.638;9.060;2023-07-30T08:22:03;4.60;;;2.20;;
10523;SDS011;5310;48.638;9.060;2023-07-30T08:24:29;4.20;;;2.03;;
10523;SDS011;5310;48.638;9.060;2023-07-30T08:26:55;4.20;;;1.97;;
10523;SDS011;5310;48.638;9.060;2023-07-30T08:29:21;4.37;;;2.00;;
10523;SDS011;5310;48.638;9.060;2023-07-30T08:31:46;3.77;;;1.83;;
10523;SDS011;5310;48.638;9.060;2023-07-30T08:34:13;5.47;;;2.13;;
10523;SDS011;5310;48.638;9.060;2023-07-30T08:36:39;3.78;;;1.90;;
10523;SDS011;5310;48.638;9.060;2023-07-30T08:39:05;4.57;;;2.17;;
10523;SDS011;5310;48.638;9.060;2023-07-30T08:41:31;3.45;;;1.67;;
10523;SDS011;5310;48.638;9.060;2023-07-30T08:43:57;4.82;;;2.10;;
10523;SDS011;5310;48.638;9.060;2023-07-30T08:46:23;4.32;;;1.98;;
10523;SDS011;5310;48.638;9.060;2023-07-30T08:48:49;4.32;;;1.98;;
10523;SDS011;5310;48.638;9.060;2023-07-30T08:51:15;3.97;;;1.92;;
10523;SDS011;5310;48.638;9.060;2023-07-30T08:53:42;3.08;;;1.63;;
10523;SDS011;5310;48.638;9.060;2023-07-30T08:56:07;3.50;;;1.85;;
10523;SDS011;5310;48.638;9.060;2023-07-30T08:58:34;3.33;;;1.70;;
10523;SDS011;5310;48.638;9.060;2023-07-30T09:01:01;3.35;;;1.75;;
10523;SDS011;5310;48.638;9.060;2023-07-30T09:03:31;4.72;;;2.08;;
10523;SDS011;5310;48.638;9.060;2023-07-30T09:05:58;3.70;;;1.80;;
10523;SDS011;5310;48.638;9.060;2023-07-30T09:08:24;4.07;;;1.95;;
10523;SDS011;5310;48.638;9.060;2023-07-30T09:10:50;4.07;;;1.85;;
10523;SDS011;5310;48.638;9.060;2023-07-30T09:13:22;4.45;;;2.00;;
10523;SDS011;5310;48.638;9.060;2023-07-30T09:15:48;5.35;;;2.10;;
10523;SDS011;5310;48.638;9.060;2023-07-30T09:18:17;4.13;;;1.90;;
10523;SDS011;5310;48.638;9.060;2023-07-30T09:20:43;4.82;;;1.88;;
10523;SDS011;5310;48.638;9.060;2023-07-30T09:23:09;4.25;;;1.73;;
10523;SDS011;5310;48.638;9.060;2023-07-30T09:25:36;3.88;;;1.90;;
10523;SDS011;5310;48.638;9.060;2023-07-30T09:28:02;4.28;;;1.75;;
10523;SDS011;5310;48.638;9.060;2023-07-30T09:30:28;5.18;;;2.15;;
10523;SDS011;5310;48.638;9.060;2023-07-30T09:32:55;5.77;;;2.23;;
10523;SDS011;5310;48.638;9.060;2023-07-30T09:35:22;5.40;;;2.17;;
10523;SDS011;5310;48.638;9.060;2023-07-30T09:38:01;3.70;;;1.53;;
10523;SDS011;5310;48.638;9.060;2023-07-30T09:40:32;4.37;;;1.70;;
10523;SDS011;5310;48.638;9.060;2023-07-30T09:42:59;2.93;;;1.60;;
10523;SDS011;5310;48.638;9.060;2023-07-30T09:45:25;3.20;;;1.60;;
10523;SDS011;5310;48.638;9.060;2023-07-30T09:47:52;3.43;;;1.73;;
10523;SDS011;5310;48.638;9.060;2023-07-30T09:50:21;3.03;;;1.50;;
10523;SDS011;5310;48.638;9.060;2023-07-30T09:52:47;2.90;;;1.57;;
10523;SDS011;5310;48.638;9.060;2023-07-30T09:55:15;3.03;;;1.50;;
10523;SDS011;5310;48.638;9.060;2023-07-30T09:57:41;2.50;;;1.50;;
10523;SDS011;5310;48.638;9.060;2023-07-30T10:00:07;2.10;;;1.27;;
10523;SDS011;5310;48.638;9.060;2023-07-30T10:02:37;3.20;;;1.67;;
10523;SDS011;5310;48.638;9.060;2023-07-30T10:05:05;3.97;;;2.00;;
10523;SDS011;5310;48.638;9.060;2023-07-30T10:07:38;3.40;;;1.70;;
10523;SDS011;5310;48.638;9.060;2023-07-30T10:10:04;3.93;;;1.80;;
10523;SDS011;5310;48.638;9.060;2023-07-30T10:12:34;3.23;;;1.67;;
10523;SDS011;5310;48.638;9.060;2023-07-30T10:15:01;4.37;;;1.97;;
10523;SDS011;5310;48.638;9.060;2023-07-30T10:17:27;4.28;;;2.05;;
10523;SDS011;5310;48.638;9.060;2023-07-30T10:19:55;3.75;;;1.90;;
10523;SDS011;5310;48.638;9.060;2023-07-30T10:22:22;4.07;;;2.05;;
10523;SDS011;5310;48.638;9.060;2023-07-30T10:24:56;4.47;;;2.20;;
10523;SDS011;5310;48.638;9.060;2023-07-30T10:27:25;4.07;;;2.07;;
10523;SDS011;5310;48.638;9.060;2023-07-30T10:30:07;4.00;;;1.85;;
10523;SDS011;5310;48.638;9.060;2023-07-30T10:32:40;3.83;;;1.90;;
10523;SDS011;5310;48.638;9.060;2023-07-30T10:35:07;4.93;;;2.13;;
10523;SDS011;5310;48.638;9.060;2023-07-30T10:37:33;4.45;;;2.00;;
10523;SDS011;5310;48.638;9.060;2023-07-30T10:39:59;4.45;;;2.03;;
10523;SDS011;5310;48.638;9.060;2023-07-30T10:42:34;4.97;;;2.15;;
10523;SDS011;5310;48.638;9.060;2023-07-30T10:44:59;4.00;;;1.90;;
10523;SDS011;5310;48.638;9.060;2023-07-30T10:47:26;4.05;;;1.95;;
10523;SDS011;5310;48.638;9.060;2023-07-30T10:49:52;4.70;;;2.03;;
10523;SDS011;5310;48.638;9.060;2023-07-30T10:52:23;4.63;;;2.05;;
10523;SDS011;5310;48.638;9.060;2023-07-30T10:54:59;3.63;;;1.85;;
10523;SDS011;5310;48.638;9.060;2023-07-30T10:57:29;4.45;;;2.00;;
10523;SDS011;5310;48.638;9.060;2023-07-30T10:59:56;2.85;;;1.50;;
10523;SDS011;5310;48.638;9.060;2023-07-30T11:02:22;3.80;;;1.85;;
10523;SDS011;5310;48.638;9.060;2023-07-30T11:04:48;3.00;;;1.58;;
10523;SDS011;5310;48.638;9.060;2023-07-30T11:07:18;4.07;;;1.88;;
10523;SDS011;5310;48.638;9.060;2023-07-30T11:09:44;3.67;;;1.85;;
10523;SDS011;5310;48.638;9.060;2023-07-30T11:12:10;3.42;;;1.75;;
10523;SDS011;5310;48.638;9.060;2023-07-30T11:14:36;3.80;;;1.83;;
10523;SDS011;5310;48.638;9.060;2023-07-30T11:17:02;4.43;;;2.10;;
10523;SDS011;5310;48.638;9.060;2023-07-30T11:19:28;3.90;;;1.92;;
10523;SDS011;5310;48.638;9.060;2023-07-30T11:21:56;3.58;;;1.70;;
10523;SDS011;5310;48.638;9.060;2023-07-30T11:24:22;3.47;;;1.75;;
10523;SDS011;5310;48.638;9.060;2023-07-30T11:26:58;5.05;;;2.00;;
10523;SDS011;5310;48.638;9.060;2023-07-30T11:29:25;4.82;;;2.15;;
10523;SDS011;5310;48.638;9.060;2023-07-30T11:31:51;3.45;;;1.80;;
10523;SDS011;5310;48.638;9.060;2023-07-30T11:34:21;3.88;;;1.85;;
10523;SDS011;5310;48.638;9.060;2023-07-30T11:36:46;4.03;;;1.90;;
10523;SDS011;5310;48.638;9.060;2023-07-30T11:39:12;3.50;;;1.90;;
10523;SDS011;5310;48.638;9.060;2023-07-30T11:41:38;3.78;;;2.00;;
10523;SDS011;5310;48.638;9.060;2023-07-30T11:44:04;4.53;;;2.08;;
10523;SDS011;5310;48.638;9.060;2023-07-30T11:46:30;4.65;;;2.10;;
10523;SDS011;5310;48.638;9.060;2023-07-30T11:49:13;3.97;;;1.90;;
10523;SDS011;5310;48.638;9.060;2023-07-30T11:51:41;5.78;;;2.38;;
10523;SDS011;5310;48.638;9.060;2023-07-30T11:54:07;5.63;;;2.33;;
10523;SDS011;5310;48.638;9.060;2023-07-30T11:56:42;5.13;;;2.17;;
10523;SDS011;5310;48.638;9.060;2023-07-30T11:59:08;6.75;;;2.80;;
10523;SDS011;5310;48.638;9.060;2023-07-30T12:01:35;8.60;;;3.08;;
10523;SDS011;5310;48.638;9.060;2023-07-30T12:04:02;6.70;;;2.67;;
10523;SDS011;5310;48.638;9.060;2023-07-30T12:06:38;6.88;;;2.80;;
10523;SDS011;5310;48.638;9.060;2023-07-30T12:09:11;4.95;;;2.17;;
10523;SDS011;5310;48.638;9.060;2023-07-30T12:11:49;4.72;;;2.17;;
10523;SDS011;5310;48.638;9.060;2023-07-30T12:14:15;5.68;;;2.42;;
10523;SDS011;5310;48.638;9.060;2023-07-30T12:16:41;5.82;;;2.35;;
10523;SDS011;5310;48.638;9.060;2023-07-30T12:19:07;3.92;;;1.77;;
10523;SDS011;5310;48.638;9.060;2023-07-30T12:21:33;5.65;;;2.38;;
10523;SDS011;5310;48.638;9.060;2023-07-30T12:23:59;4.18;;;1.83;;
10523;SDS011;5310;48.638;9.060;2023-07-30T12:26:25;6.18;;;2.42;;
10523;SDS011;5310;48.638;9.060;2023-07-30T12:28:51;4.32;;;1.85;;
10523;SDS011;5310;48.638;9.060;2023-07-30T12:31:17;5.20;;;2.17;;
10523;SDS011;5310;48.638;9.060;2023-07-30T12:33:43;5.35;;;2.10;;
10523;SDS011;5310;48.638;9.060;2023-07-30T12:36:09;5.18;;;2.08;;
10523;SDS011;5310;48.638;9.060;2023-07-30T12:38:35;5.72;;;2.28;;
10523;SDS011;5310;48.638;9.060;2023-07-30T12:41:01;4.80;;;2.08;;
10523;SDS011;5310;48.638;9.060;2023-07-30T12:43:27;5.15;;;2.20;;
10523;SDS011;5310;48.638;9.060;2023-07-30T12:45:52;4.82;;;2.00;;
10523;SDS011;5310;48.638;9.060;2023-07-30T12:48:18;3.97;;;1.88;;
10523;SDS011;5310;48.638;9.060;2023-07-30T12:50:44;3.60;;;1.77;;
10523;SDS011;5310;48.638;9.060;2023-07-30T12:53:10;4.82;;;2.17;;
10523;SDS011;5310;48.638;9.060;2023-07-30T12:55:36;6.32;;;2.58;;
10523;SDS011;5310;48.638;9.060;2023-07-30T12:58:03;6.55;;;2.53;;
10523;SDS011;5310;48.638;9.060;2023-07-30T13:00:29;6.43;;;2.35;;
10523;SDS011;5310;48.638;9.060;2023-07-30T13:02:55;5.40;;;2.17;;
10523;SDS011;5310;48.638;9.060;2023-07-30T13:05:22;5.47;;;2.17;;
10523;SDS011;5310;48.638;9.060;2023-07-30T13:07:48;4.45;;;1.98;;
10523;SDS011;5310;48.638;9.060;2023-07-30T13:10:14;3.38;;;1.63;;
10523;SDS011;5310;48.638;9.060;2023-07-30T13:12:40;4.65;;;1.95;;
10523;SDS011;5310;48.638;9.060;2023-07-30T13:15:06;3.85;;;1.83;;
10523;SDS011;5310;48.638;9.060;2023-07-30T13:17:32;5.40;;;2.35;;
10523;SDS011;5310;48.638;9.060;2023-07-30T13:19:58;4.65;;;2.05;;
10523;SDS011;5310;48.638;9.060;2023-07-30T13:22:25;5.18;;;2.28;;
10523;SDS011;5310;48.638;9.060;2023-07-30T13:24:51;4.85;;;2.10;;
10523;SDS011;5310;48.638;9.060;2023-07-30T13:27:17;5.35;;;2.28;;
10523;SDS011;5310;48.638;9.060;2023-07-30T13:29:43;4.88;;;2.17;;
10523;SDS011;5310;48.638;9.060;2023-07-30T13:32:10;4.60;;;1.95;;
10523;SDS011;5310;48.638;9.060;2023-07-30T13:34:35;4.30;;;1.90;;
10523;SDS011;5310;48.638;9.060;2023-07-30T13:37:01;5.20;;;2.22;;
10523;SDS011;5310;48.638;9.060;2023-07-30T13:39:27;4.68;;;2.05;;
10523;SDS011;5310;48.638;9.060;2023-07-30T13:41:53;3.25;;;1.63;;
10523;SDS011;5310;48.638;9.060;2023-07-30T13:44:20;3.15;;;1.73;;
10523;SDS011;5310;48.638;9.060;2023-07-30T13:46:46;4.70;;;2.05;;
10523;SDS011;5310;48.638;9.060;2023-07-30T13:49:12;4.18;;;2.05;;
10523;SDS011;5310;48.638;9.060;2023-07-30T13:51:38;4.70;;;2.25;;
10523;SDS011;5310;48.638;9.060;2023-07-30T13:54:03;3.70;;;1.85;;
10523;SDS011;5310;48.638;9.060;2023-07-30T13:56:32;4.60;;;2.08;;
10523;SDS011;5310;48.638;9.060;2023-07-30T13:58:58;5.25;;;2.30;;
10523;SDS011;5310;48.638;9.060;2023-07-30T14:01:24;4.32;;;2.13;;
10523;SDS011;5310;48.638;9.060;2023-07-30T14:03:50;3.65;;;1.90;;
10523;SDS011;5310;48.638;9.060;2023-07-30T14:06:16;3.60;;;1.98;;
10523;SDS011;5310;48.638;9.060;2023-07-30T14:08:42;3.33;;;1.80;;
10523;SDS011;5310;48.638;9.060;2023-07-30T14:11:08;4.35;;;2.20;;
10523;SDS011;5310;48.638;9.060;2023-07-30T14:13:34;3.67;;;1.95;;
10523;SDS011;5310;48.638;9.060;2023-07-30T14:16:00;5.05;;;2.22;;
10523;SDS011;5310;48.638;9.060;2023-07-30T14:18:26;3.83;;;2.00;;
10523;SDS011;5310;48.638;9.060;2023-07-30T14:20:52;5.30;;;2.30;;
10523;SDS011;5310;48.638;9.060;2023-07-30T14:23:18;4.55;;;2.17;;
10523;SDS011;5310;48.638;9.060;2023-07-30T14:25:44;4.47;;;2.08;;
10523;SDS011;5310;48.638;9.060;2023-07-30T14:28:10;4.55;;;2.25;;
10523;SDS011;5310;48.638;9.060;2023-07-30T14:30:36;4.10;;;2.00;;
10523;SDS011;5310;48.638;9.060;2023-07-30T14:33:08;4.07;;;2.10;;
10523;SDS011;5310;48.638;9.060;2023-07-30T14:35:34;3.85;;;2.00;;
10523;SDS011;5310;48.638;9.060;2023-07-30T14:38:02;4.03;;;2.17;;
10523;SDS011;5310;48.638;9.060;2023-07-30T14:40:28;5.45;;;2.38;;
10523;SDS011;5310;48.638;9.060;2023-07-30T14:42:54;4.95;;;2.58;;
10523;SDS011;5310;48.638;9.060;2023-07-30T14:45:20;4.93;;;2.45;;
10523;SDS011;5310;48.638;9.060;2023-07-30T14:47:46;3.88;;;2.08;;
10523;SDS011;5310;48.638;9.060;2023-07-30T14:50:12;4.85;;;2.38;;
10523;SDS011;5310;48.638;9.060;2023-07-30T14:52:38;3.78;;;2.03;;
10523;SDS011;5310;48.638;9.060;2023-07-30T14:55:04;3.70;;;2.03;;
10523;SDS011;5310;48.638;9.060;2023-07-30T14:57:30;3.67;;;2.03;;